Time;durP1;ratioP1;P1;durP2;ratioP2;P2;SDS_P1;SDS_P2;PMS_P1;PMS_P2;Temp;Humidity;BMP_temperature;BMP_pressure;BME280_temperature;BME280_humidity;BME280_pressure;Samples;Min_cycle;Max_cycle;Signal;HPM_P1;HPM_P2
2022/11/12 00:01:08;;;;;;;;;;;;;;;13.97;72.76;102758.06;5065920;28;19961;-85
2022/11/12 00:03:33;;;;;;;;;;;;;;;14.04;72.62;102751.53;5063448;28;19915;-85
2022/11/12 00:05:58;;;;;;;;;;;;;;;14.03;72.58;102750.63;5057891;28;20378;-85
2022/11/12 00:08:24;;;;;;;;;;;;;;;14.00;72.52;102758.25;5061155;28;20302;-85
2022/11/12 00:10:49;;;;;;;;;;;;;;;13.94;72.89;102762.16;5071674;28;20003;-86
2022/11/12 00:13:15;;;;;;;;;;;;;;;13.95;73.06;102759.66;5080095;28;20003;-85
2022/11/12 00:15:40;;;;;;;;;;;;;;;13.99;72.73;102760.75;5060732;28;19930;-85
2022/11/12 00:18:06;;;;;;;;;;;;;;;13.91;73.11;102759.34;5068489;28;19912;-86
2022/11/12 00:20:32;;;;;;;;;;;;;;;14.01;72.65;102753.91;5070763;28;20404;-86
2022/11/12 00:22:57;;;;;;;;;;;;;;;13.93;73.04;102752.47;5056675;28;19958;-86
2022/11/12 00:25:23;;;;;;;;;;;;;;;14.03;72.62;102753.25;5055958;28;19938;-85
2022/11/12 00:27:48;;;;;;;;;;;;;;;13.98;72.56;102748.44;5068288;28;20329;-85
2022/11/12 00:30:14;;;;;;;;;;;;;;;13.99;72.69;102753.81;5055329;28;20368;-85
2022/11/12 00:32:39;;;;;;;;;;;;;;;14.00;72.83;102747.75;5058466;28;19908;-86
2022/11/12 00:35:05;;;;;;;;;;;;;;;14.01;72.64;102751.28;5068210;28;19930;-85
2022/11/12 00:37:30;;;;;;;;;;;;;;;13.92;72.78;102745.38;5070116;28;20401;-86
2022/11/12 00:39:55;;;;;;;;;;;;;;;13.89;73.02;102745.19;5055452;28;19939;-86
2022/11/12 00:42:21;;;;;;;;;;;;;;;14.00;72.84;102752.09;5055428;28;19931;-84
2022/11/12 00:44:48;;;;;;;;;;;;;;;13.91;72.99;102746.19;5060151;28;20404;-86
2022/11/12 00:47:14;;;;;;;;;;;;;;;13.99;72.71;102740.69;5069926;28;19908;-86
2022/11/12 00:49:39;;;;;;;;;;;;;;;13.95;72.98;102736.00;5055214;28;19995;-86
2022/11/12 00:52:05;;;;;;;;;;;;;;;13.98;72.59;102733.59;5071037;28;20374;-86
2022/11/12 00:54:30;;;;;;;;;;;;;;;13.96;72.81;102727.31;5072132;28;19908;-85
2022/11/12 00:56:56;;;;;;;;;;;;;;;14.00;72.68;102723.22;5085177;28;20282;-85
2022/11/12 00:59:21;;;;;;;;;;;;;;;13.93;73.01;102727.13;5072280;28;19908;-86
2022/11/12 01:01:47;;;;;;;;;;;;;;;13.93;73.01;102728.84;5072327;28;20385;-86
2022/11/12 01:04:12;;;;;;;;;;;;;;;13.89;73.18;102735.56;5079504;28;20305;-87
2022/11/12 01:06:38;;;;;;;;;;;;;;;13.92;72.88;102725.28;5080952;28;19912;-87
2022/11/12 01:09:03;;;;;;;;;;;;;;;13.94;72.78;102720.13;5077727;28;20441;-85
2022/11/12 01:11:29;;;;;;;;;;;;;;;13.89;72.97;102717.19;5078187;28;20373;-87
2022/11/12 01:13:54;;;;;;;;;;;;;;;13.93;73.00;102713.06;5058838;28;19915;-86
2022/11/12 01:16:20;;;;;;;;;;;;;;;13.93;72.98;102707.81;5071053;28;19914;-85
2022/11/12 01:18:46;;;;;;;;;;;;;;;13.84;73.12;102708.03;5070232;28;19962;-85
2022/11/12 01:21:12;;;;;;;;;;;;;;;13.92;72.92;102713.84;5087924;28;19915;-86
2022/11/12 01:23:39;;;;;;;;;;;;;;;13.95;72.73;102704.50;5058474;28;19959;-86
2022/11/12 01:26:05;;;;;;;;;;;;;;;13.99;72.59;102706.53;5053822;28;19908;-86
2022/11/12 01:28:30;;;;;;;;;;;;;;;13.97;72.56;102712.47;5058148;28;19912;-86
2022/11/12 01:30:55;;;;;;;;;;;;;;;13.97;72.63;102704.59;5066972;28;20019;-86
2022/11/12 01:33:21;;;;;;;;;;;;;;;13.97;72.61;102720.34;5065012;28;20325;-86
2022/11/12 01:35:46;;;;;;;;;;;;;;;14.01;72.51;102725.00;5069083;28;19916;-86
2022/11/12 01:38:12;;;;;;;;;;;;;;;13.99;72.52;102709.16;5082437;28;20313;-86
2022/11/12 01:40:37;;;;;;;;;;;;;;;13.92;72.88;102719.13;5069291;28;19930;-86
2022/11/12 01:43:03;;;;;;;;;;;;;;;13.92;72.88;102717.38;5071742;28;19908;-86
2022/11/12 01:45:28;;;;;;;;;;;;;;;13.93;72.79;102715.69;5063857;28;20291;-86
2022/11/12 01:47:54;;;;;;;;;;;;;;;13.91;72.91;102712.97;5079934;28;19908;-85
2022/11/12 01:50:21;;;;;;;;;;;;;;;13.87;73.11;102717.88;5055876;28;19939;-85
2022/11/12 01:52:50;;;;;;;;;;;;;;;13.98;72.75;102712.56;5071533;28;19966;-85
2022/11/12 01:55:23;;;;;;;;;;;;;;;13.94;72.74;102707.91;5056073;28;19995;-85
2022/11/12 01:57:50;;;;;;;;;;;;;;;13.91;72.91;102712.06;5070430;28;19912;-85
2022/11/12 02:00:16;;;;;;;;;;;;;;;13.92;72.77;102713.84;5068378;28;19908;-85
2022/11/12 02:02:42;;;;;;;;;;;;;;;14.02;72.49;102717.25;5075509;28;19914;-85
2022/11/12 02:05:08;;;;;;;;;;;;;;;13.99;72.62;102717.03;5070264;28;20332;-84
2022/11/12 02:07:34;;;;;;;;;;;;;;;13.92;72.81;102716.47;5070175;28;19915;-84
2022/11/12 02:10:00;;;;;;;;;;;;;;;13.93;72.54;102706.09;5058083;28;19920;-85
2022/11/12 02:15:09;;;;;;;;;;;;;;;13.91;72.73;102719.94;5071344;28;19915;-85
2022/11/12 02:17:35;;;;;;;;;;;;;;;13.97;72.61;102720.34;5055052;28;19909;-86
2022/11/12 02:20:00;;;;;;;;;;;;;;;13.97;72.61;102722.97;5053372;28;20383;-86
2022/11/12 02:22:26;;;;;;;;;;;;;;;13.87;73.04;102718.78;5050791;28;20453;-85
2022/11/12 02:24:51;;;;;;;;;;;;;;;13.90;72.87;102711.13;5067105;28;19908;-85
2022/11/12 02:27:17;;;;;;;;;;;;;;;13.95;72.64;102720.25;5067930;28;19908;-85
2022/11/12 02:29:45;;;;;;;;;;;;;;;13.98;72.56;102712.56;5070801;28;19908;-85
2022/11/12 02:32:13;;;;;;;;;;;;;;;13.96;72.75;102726.41;5054873;28;19920;-85
2022/11/12 02:34:39;;;;;;;;;;;;;;;13.96;72.62;102724.69;5086186;28;19913;-85
2022/11/12 02:37:04;;;;;;;;;;;;;;;14.02;72.46;102718.97;5060857;28;19909;-85
2022/11/12 02:39:30;;;;;;;;;;;;;;;13.95;72.71;102721.94;5066408;28;19943;-86
2022/11/12 02:41:55;;;;;;;;;;;;;;;13.91;72.85;102712.97;5071541;28;19948;-86
2022/11/12 02:44:21;;;;;;;;;;;;;;;13.93;72.79;102716.59;5058092;28;20012;-86
2022/11/12 02:46:46;;;;;;;;;;;;;;;13.93;72.68;102715.69;5063815;28;19999;-86
2022/11/12 02:49:11;;;;;;;;;;;;;;;13.95;72.64;102709.75;5066920;28;20289;-86
2022/11/12 02:51:37;;;;;;;;;;;;;;;13.89;72.79;102705.78;5068373;28;19947;-86
2022/11/12 02:54:02;;;;;;;;;;;;;;;13.88;73.03;102717.97;5090506;28;20011;-84
2022/11/12 02:56:28;;;;;;;;;;;;;;;13.88;72.88;102717.06;5071928;28;20030;-85
2022/11/12 02:58:53;;;;;;;;;;;;;;;13.99;72.45;102708.22;5057643;28;19908;-85
2022/11/12 03:01:18;;;;;;;;;;;;;;;13.95;72.62;102708.81;5057290;28;20405;-86
2022/11/12 03:03:44;;;;;;;;;;;;;;;13.98;72.51;102709.03;5070920;28;20386;-86
2022/11/12 03:06:09;;;;;;;;;;;;;;;13.98;72.51;102704.69;5057221;28;20286;-86
2022/11/12 03:08:35;;;;;;;;;;;;;;;13.93;72.68;102720.97;5069490;28;19924;-85
2022/11/12 03:11:10;;;;;;;;;;;;;;;13.97;72.62;102726.53;5057058;28;19919;-85
2022/11/12 03:13:36;;;;;;;;;;;;;;;13.96;72.50;102724.69;5055222;28;19908;-86
2022/11/12 03:16:01;;;;;;;;;;;;;;;14.00;72.29;102729.38;5072945;28;20404;-85
2022/11/12 03:18:27;;;;;;;;;;;;;;;14.00;72.59;102732.00;5056155;28;20320;-86
2022/11/12 03:20:52;;;;;;;;;;;;;;;13.93;72.81;102727.13;5057898;28;19970;-85
2022/11/12 03:23:18;;;;;;;;;;;;;;;14.09;72.33;102729.09;5065387;28;19916;-85
2022/11/12 03:25:43;;;;;;;;;;;;;;;14.00;72.48;102736.34;5057499;28;20396;-84
2022/11/12 03:28:12;;;;;;;;;;;;;;;13.99;72.46;102739.75;5054112;28;19908;-87
2022/11/12 03:30:39;;;;;;;;;;;;;;;13.96;72.56;102737.81;5070999;28;20003;-87
2022/11/12 03:33:05;;;;;;;;;;;;;;;13.87;72.96;102737.19;5055904;28;19912;-86
2022/11/12 03:35:31;;;;;;;;;;;;;;;13.96;72.62;102747.44;5056033;28;20377;-86
2022/11/12 03:37:57;;;;;;;;;;;;;;;13.92;72.75;102750.63;5068761;28;20583;-86
2022/11/12 03:40:23;;;;;;;;;;;;;;;13.99;72.56;102750.25;5069280;28;19909;-86
2022/11/12 03:42:48;;;;;;;;;;;;;;;13.99;72.49;102748.56;5071997;28;20077;-87
2022/11/12 03:45:14;;;;;;;;;;;;;;;13.91;72.83;102752.34;5073636;28;19912;-86
2022/11/12 03:47:43;;;;;;;;;;;;;;;13.92;72.71;102748.00;5073514;28;19908;-86
2022/11/12 03:50:09;;;;;;;;;;;;;;;13.93;72.65;102747.22;5072194;28;20427;-86
2022/11/12 03:52:34;;;;;;;;;;;;;;;13.92;72.77;102753.25;5072497;28;19966;-86
2022/11/12 03:55:00;;;;;;;;;;;;;;;13.92;72.85;102751.53;5073468;28;19950;-86
2022/11/12 03:57:25;;;;;;;;;;;;;;;13.87;73.02;102747.69;5083520;28;19931;-86
2022/11/12 03:59:51;;;;;;;;;;;;;;;13.97;72.67;102743.97;5073519;28;19915;-85
2022/11/12 04:02:16;;;;;;;;;;;;;;;13.90;72.93;102747.88;5073571;28;19956;-85
2022/11/12 04:10:09;;;;;;;;;;;;;;;13.98;72.54;102761.59;5064930;28;20420;-84
2022/11/12 04:15:19;;;;;;;;;;;;;;;13.94;72.81;102763.06;5068745;28;19915;-83
2022/11/12 04:23:12;;;;;;;;;;;;;;;13.92;72.88;102756.78;5072853;28;19936;-84
2022/11/12 04:28:22;;;;;;;;;;;;;;;13.97;72.63;102760.69;5069599;28;20057;-85
2022/11/12 04:30:47;;;;;;;;;;;;;;;14.03;72.30;102760.19;5056060;28;19995;-85
2022/11/12 04:33:13;;;;;;;;;;;;;;;13.96;72.51;102763.19;5070326;28;20401;-85
2022/11/12 04:35:38;;;;;;;;;;;;;;;14.00;72.49;102758.25;5070555;28;20305;-85
2022/11/12 04:38:03;;;;;;;;;;;;;;;13.94;72.67;102759.53;5068330;28;20400;-84
2022/11/12 04:45:58;;;;;;;;;;;;;;;13.86;73.06;102769.47;5072313;28;19961;-85
2022/11/12 04:48:24;;;;;;;;;;;;;;;13.85;73.18;102768.56;5058755;28;19999;-84
2022/11/12 04:50:53;;;;;;;;;;;;;;;13.84;72.99;102776.34;5072032;28;20021;-84
2022/11/12 04:53:19;;;;;;;;;;;;;;;13.95;72.70;102782.38;5084858;28;19912;-84
2022/11/12 04:55:44;;;;;;;;;;;;;;;13.92;73.00;102784.78;5077303;28;19919;-84
2022/11/12 04:58:09;;;;;;;;;;;;;;;13.87;73.28;102791.44;5072146;28;19974;-84
2022/11/12 05:00:35;;;;;;;;;;;;;;;13.94;72.83;102789.34;5072451;28;20713;-84
2022/11/12 05:03:00;;;;;;;;;;;;;;;13.93;72.75;102787.53;5072593;28;20378;-83
2022/11/12 05:05:26;;;;;;;;;;;;;;;13.93;72.70;102786.63;5072992;28;20365;-84
2022/11/12 05:07:51;;;;;;;;;;;;;;;13.94;72.70;102791.97;5072380;28;20388;-84
2022/11/12 05:10:16;;;;;;;;;;;;;;;13.99;72.43;102787.03;5054426;28;20386;-84
2022/11/12 05:12:42;;;;;;;;;;;;;;;13.91;72.86;102797.00;5072363;28;20408;-84
2022/11/12 05:15:08;;;;;;;;;;;;;;;13.91;72.64;102796.09;5070600;28;19908;-83
2022/11/12 05:17:33;;;;;;;;;;;;;;;13.93;72.72;102805.00;5065357;28;19908;-84
2022/11/12 05:19:59;;;;;;;;;;;;;;;13.92;72.68;102813.66;5051117;28;19916;-84
2022/11/12 05:22:24;;;;;;;;;;;;;;;13.95;72.69;102814.81;5068679;28;20411;-86
2022/11/12 05:24:49;;;;;;;;;;;;;;;13.96;72.48;102813.09;5063337;28;20370;-85
2022/11/12 05:27:16;;;;;;;;;;;;;;;13.97;72.42;102820.16;5060021;28;20421;-83
2022/11/12 05:29:41;;;;;;;;;;;;;;;13.94;72.67;102812.97;5065766;28;19914;-86
2022/11/12 05:32:07;;;;;;;;;;;;;;;13.94;72.73;102828.75;5055930;28;19921;-86
2022/11/12 05:34:32;;;;;;;;;;;;;;;13.92;72.74;102826.81;5070515;28;20408;-85
2022/11/12 05:36:58;;;;;;;;;;;;;;;13.89;72.92;102837.09;5065971;28;19975;-85
2022/11/12 05:39:24;;;;;;;;;;;;;;;13.97;72.62;102833.28;5060342;28;19966;-85
2022/11/12 05:41:49;;;;;;;;;;;;;;;13.99;72.49;102831.69;5070259;28;19908;-85
2022/11/12 05:44:15;;;;;;;;;;;;;;;14.00;72.28;102836.16;5078259;28;20359;-85
2022/11/12 05:46:40;;;;;;;;;;;;;;;13.93;72.55;102836.53;5085958;28;19962;-86
2022/11/12 05:49:07;;;;;;;;;;;;;;;13.96;72.75;102837.66;5060187;28;19909;-85
2022/11/12 05:51:32;;;;;;;;;;;;;;;13.94;72.56;102836.63;5068048;28;19917;-85
2022/11/12 05:53:58;;;;;;;;;;;;;;;13.90;72.77;102842.44;5071737;28;20539;-85
2022/11/12 05:56:23;;;;;;;;;;;;;;;13.89;72.82;102845.88;5071553;28;20297;-85
2022/11/12 05:58:48;;;;;;;;;;;;;;;13.91;72.72;102851.25;5070561;28;19912;-85
2022/11/12 06:01:14;;;;;;;;;;;;;;;13.93;72.74;102849.66;5071776;28;19931;-85
2022/11/12 06:03:39;;;;;;;;;;;;;;;13.92;72.73;102851.34;5065784;28;19916;-84
2022/11/12 06:06:05;;;;;;;;;;;;;;;13.89;72.73;102858.13;5061887;28;19957;-84
2022/11/12 06:08:30;;;;;;;;;;;;;;;13.95;72.71;102846.34;5070972;28;20321;-84
2022/11/12 06:10:55;;;;;;;;;;;;;;;13.92;72.76;102860.94;5070888;28;19931;-85
2022/11/12 06:13:22;;;;;;;;;;;;;;;13.87;73.07;102857.09;5068664;28;19912;-85
2022/11/12 06:15:47;;;;;;;;;;;;;;;13.90;73.01;102855.56;5069784;28;20446;-84
2022/11/12 06:18:13;;;;;;;;;;;;;;;13.84;73.47;102856.06;5065826;28;19912;-84
2022/11/12 06:20:38;;;;;;;;;;;;;;;13.74;73.90;102863.16;5086383;28;20401;-85
2022/11/12 06:23:03;;;;;;;;;;;;;;;13.70;73.93;102854.13;5070839;28;19919;-85
2022/11/12 06:25:29;;;;;;;;;;;;;;;13.74;73.73;102857.91;5071179;28;20370;-85
2022/11/12 06:27:54;;;;;;;;;;;;;;;13.79;73.62;102864.38;5065794;28;19915;-85
2022/11/12 06:30:20;;;;;;;;;;;;;;;13.83;73.43;102866.44;5067726;28;20393;-85
2022/11/12 06:32:45;;;;;;;;;;;;;;;13.79;73.66;102864.38;5070510;28;19912;-85
2022/11/12 06:35:11;;;;;;;;;;;;;;;13.86;73.58;102861.41;5078357;28;19912;-85
2022/11/12 06:37:36;;;;;;;;;;;;;;;13.88;73.64;102866.78;5072795;28;19966;-83
2022/11/12 06:40:02;;;;;;;;;;;;;;;13.69;74.72;102870.66;5064179;28;20427;-83
2022/11/12 06:42:27;;;;;;;;;;;;;;;13.72;74.46;102872.63;5080968;28;19942;-86
2022/11/12 06:44:53;;;;;;;;;;;;;;;13.75;74.34;102864.97;5073338;28;20348;-84
2022/11/12 06:47:18;;;;;;;;;;;;;;;13.82;73.86;102865.53;5078675;28;20381;-84
2022/11/12 06:49:44;;;;;;;;;;;;;;;13.76;74.19;102872.06;5078822;28;20471;-84
2022/11/12 06:52:09;;;;;;;;;;;;;;;13.76;74.07;102877.31;5080178;28;20416;-85
2022/11/12 06:54:34;;;;;;;;;;;;;;;13.79;74.00;102882.78;5064641;28;19912;-85
2022/11/12 06:57:00;;;;;;;;;;;;;;;13.74;74.35;102884.16;5057610;28;20393;-87
2022/11/12 06:59:26;;;;;;;;;;;;;;;13.79;74.06;102885.41;5063430;28;20369;-85
2022/11/12 07:01:51;;;;;;;;;;;;;;;13.83;74.07;102882.19;5073394;28;20389;-87
2022/11/12 07:04:16;;;;;;;;;;;;;;;13.82;73.68;102890.84;5073453;28;19924;-86
2022/11/12 07:06:42;;;;;;;;;;;;;;;13.79;74.11;102886.31;5085071;28;19913;-85
2022/11/12 07:09:07;;;;;;;;;;;;;;;13.77;73.83;102885.28;5072458;28;19916;-85
2022/11/12 07:11:33;;;;;;;;;;;;;;;13.80;73.76;102892.47;5072440;28;20451;-86
2022/11/12 07:13:58;;;;;;;;;;;;;;;13.82;73.82;102891.81;5058086;28;19909;-84
2022/11/12 07:16:24;;;;;;;;;;;;;;;13.83;73.70;102880.47;5068666;28;20314;-86
2022/11/12 07:18:49;;;;;;;;;;;;;;;13.83;73.85;102887.44;5071780;28;20486;-84
2022/11/12 07:21:16;;;;;;;;;;;;;;;13.81;73.41;102883.78;5081713;28;19965;-85
2022/11/12 07:23:41;;;;;;;;;;;;;;;13.83;73.69;102885.72;5072099;28;20385;-85
2022/11/12 07:26:09;;;;;;;;;;;;;;;13.86;73.68;102887.66;5084841;28;19919;-85
2022/11/12 07:28:35;;;;;;;;;;;;;;;13.80;73.72;102884.59;5080015;28;20401;-85
2022/11/12 07:31:02;;;;;;;;;;;;;;;13.82;73.56;102885.59;5076788;28;19941;-85
2022/11/12 07:33:27;;;;;;;;;;;;;;;13.84;73.76;102890.19;5081603;28;19912;-85
2022/11/12 07:35:57;;;;;;;;;;;;;;;13.84;73.53;102882.31;5077455;28;19916;-85
2022/11/12 07:38:22;;;;;;;;;;;;;;;13.82;73.54;102889.19;5072343;28;19916;-84
2022/11/12 07:40:49;;;;;;;;;;;;;;;13.87;73.44;102889.50;5079653;28;19915;-83
2022/11/12 07:43:14;;;;;;;;;;;;;;;13.89;73.55;102894.88;5074266;28;19919;-82
2022/11/12 07:45:42;;;;;;;;;;;;;;;13.89;73.53;102893.16;5075038;28;20423;-83
2022/11/12 07:48:08;;;;;;;;;;;;;;;13.94;73.22;102904.00;5085752;28;20319;-83
2022/11/12 07:50:33;;;;;;;;;;;;;;;13.93;73.19;102905.72;5073713;28;19912;-82
2022/11/12 07:52:59;;;;;;;;;;;;;;;13.88;73.48;102899.19;5076786;28;20078;-82
2022/11/12 07:55:24;;;;;;;;;;;;;;;13.89;73.59;102905.41;5087053;28;20341;-84
2022/11/12 07:57:49;;;;;;;;;;;;;;;13.85;73.77;102899.00;5071730;28;19912;-84
2022/11/12 08:00:15;;;;;;;;;;;;;;;13.81;73.96;102907.44;5070493;28;19912;-84
2022/11/12 08:02:40;;;;;;;;;;;;;;;13.85;73.94;102909.50;5069364;28;20388;-85
2022/11/12 08:05:06;;;;;;;;;;;;;;;13.80;73.95;102909.16;5077382;28;20231;-86
2022/11/12 08:07:31;;;;;;;;;;;;;;;13.80;74.15;102903.91;5086958;28;20365;-85
2022/11/12 08:09:57;;;;;;;;;;;;;;;13.81;73.97;102913.59;5078782;28;19920;-84
2022/11/12 08:12:23;;;;;;;;;;;;;;;13.84;73.83;102913.84;5073170;28;20093;-85
2022/11/12 08:14:48;;;;;;;;;;;;;;;13.84;74.01;102918.16;5068316;28;20430;-85
2022/11/12 08:17:14;;;;;;;;;;;;;;;13.87;74.03;102912.25;5054589;28;19916;-84
2022/11/12 08:19:39;;;;;;;;;;;;;;;13.93;73.69;102912.72;5053003;28;20004;-84
2022/11/12 08:22:05;;;;;;;;;;;;;;;13.92;73.58;102916.13;5068190;28;19908;-85
2022/11/12 08:24:30;;;;;;;;;;;;;;;13.89;73.88;102919.44;5072180;28;20377;-85
2022/11/12 08:26:55;;;;;;;;;;;;;;;13.99;73.50;102915.75;5072015;28;20358;-85
2022/11/12 08:29:22;;;;;;;;;;;;;;;13.94;73.77;102911.91;5071538;28;19908;-85
2022/11/12 08:31:47;;;;;;;;;;;;;;;13.88;73.95;102911.44;5071441;28;19950;-84
2022/11/12 08:34:13;;;;;;;;;;;;;;;13.84;74.41;102916.47;5083026;28;20377;-84
2022/11/12 08:36:41;;;;;;;;;;;;;;;13.89;74.04;102916.81;5075976;28;19912;-85
2022/11/12 08:39:07;;;;;;;;;;;;;;;13.88;74.06;102927.19;5081570;28;19952;-85
2022/11/12 08:41:32;;;;;;;;;;;;;;;13.86;74.29;102927.06;5061758;28;19955;-87
2022/11/12 08:43:58;;;;;;;;;;;;;;;13.87;74.50;102928.91;5078240;28;19947;-85
2022/11/12 08:46:23;;;;;;;;;;;;;;;13.82;74.46;102922.38;5064235;28;20385;-85
2022/11/12 08:48:49;;;;;;;;;;;;;;;13.93;73.98;102928.47;5066405;28;19912;-85
2022/11/12 08:51:14;;;;;;;;;;;;;;;13.92;74.33;102922.28;5048656;28;19916;-85
2022/11/12 08:53:40;;;;;;;;;;;;;;;13.95;73.85;102925.16;5071856;28;19908;-86
2022/11/12 08:56:05;;;;;;;;;;;;;;;13.89;74.44;102918.53;5059685;28;20295;-85
2022/11/12 08:58:32;;;;;;;;;;;;;;;13.84;74.45;102929.59;5060559;28;19908;-86
2022/11/12 09:01:05;;;;;;;;;;;;;;;13.90;74.27;102929.13;5070900;28;20361;-86
2022/11/12 09:03:31;;;;;;;;;;;;;;;13.92;74.16;102929.25;5057360;28;19962;-86
2022/11/12 09:05:56;;;;;;;;;;;;;;;13.99;74.11;102936.78;5057887;28;19913;-85
2022/11/12 09:08:22;;;;;;;;;;;;;;;13.94;74.08;102933.81;5071752;28;19939;-86
2022/11/12 09:10:48;;;;;;;;;;;;;;;13.96;73.87;102937.47;5058897;28;20388;-84
2022/11/12 09:13:13;;;;;;;;;;;;;;;13.97;74.46;102931.44;5068977;28;19962;-85
2022/11/12 09:15:39;;;;;;;;;;;;;;;13.93;74.55;102925.84;5059386;28;19912;-84
2022/11/12 09:18:05;;;;;;;;;;;;;;;13.89;74.58;102921.16;5053953;28;19952;-86
2022/11/12 09:20:31;;;;;;;;;;;;;;;13.92;74.57;102924.91;5078673;28;19916;-85
2022/11/12 09:23:00;;;;;;;;;;;;;;;13.92;74.39;102917.03;5065483;28;19931;-85
2022/11/12 09:25:26;;;;;;;;;;;;;;;13.95;74.23;102918.97;5059933;28;19909;-85
2022/11/12 09:27:51;;;;;;;;;;;;;;;13.96;74.19;102924.34;5064249;28;19916;-86
2022/11/12 09:30:16;;;;;;;;;;;;;;;13.95;74.53;102919.91;5061974;28;19913;-86
2022/11/12 09:32:42;;;;;;;;;;;;;;;14.03;74.13;102915.19;5069288;28;19912;-85
2022/11/12 09:35:07;;;;;;;;;;;;;;;14.01;74.14;102914.16;5074363;28;20371;-86
2022/11/12 09:37:33;;;;;;;;;;;;;;;13.96;74.53;102916.44;5069966;28;20403;-86
2022/11/12 09:39:58;;;;;;;;;;;;;;;13.94;74.68;102912.78;5066746;28;19908;-86
2022/11/12 09:42:24;;;;;;;;;;;;;;;13.96;74.24;102911.19;5069135;28;20560;-86
2022/11/12 09:44:56;;;;;;;;;;;;;;;13.94;74.87;102918.06;5077456;28;19919;-86
2022/11/12 09:47:24;;;;;;;;;;;;;;;13.92;74.73;102913.50;5071363;28;20433;-86
2022/11/12 09:49:52;;;;;;;;;;;;;;;13.99;74.19;102906.19;5061788;28;19934;-85
2022/11/12 09:52:25;;;;;;;;;;;;;;;13.98;74.24;102908.69;5074735;28;20385;-86
2022/11/12 09:54:52;;;;;;;;;;;;;;;13.92;74.47;102901.25;5080181;28;19980;-85
2022/11/12 09:57:18;;;;;;;;;;;;;;;13.96;74.40;102897.16;5078875;28;19951;-86
2022/11/12 09:59:43;;;;;;;;;;;;;;;13.90;75.05;102896.69;5067973;28;20374;-86
2022/11/12 10:02:27;;;;;;;;;;;;;;;13.93;74.66;102894.31;5077815;28;20385;-85
2022/11/12 10:04:55;;;;;;;;;;;;;;;14.03;74.01;102894.19;5085865;28;20356;-86
2022/11/12 10:07:21;;;;;;;;;;;;;;;14.04;73.88;102883.78;5075419;28;19927;-85
2022/11/12 10:10:00;;;;;;;;;;;;;;;14.04;73.96;102883.78;5077213;28;19916;-85
2022/11/12 10:12:32;;;;;;;;;;;;;;;14.04;73.91;102883.78;5098792;28;19916;-85
2022/11/12 10:16:41;;;;;;;;;;;;;;;14.01;74.17;102880.00;5075908;28;19912;-86
2022/11/12 10:17:50;;;;;;;;;;;;;;;14.01;74.07;102873.06;5080351;28;19955;-86
2022/11/12 10:20:28;;;;;;;;;;;;;;;14.07;73.99;102882.19;5063421;28;19919;-86
2022/11/12 10:22:53;;;;;;;;;;;;;;;14.23;73.32;102880.78;5089647;28;19908;-86
2022/11/12 10:25:19;;;;;;;;;;;;;;;14.08;73.80;102884.94;5073418;28;19966;-86
2022/11/12 10:27:44;;;;;;;;;;;;;;;14.10;73.70;102888.59;5073613;28;19962;-86
2022/11/12 10:30:19;;;;;;;;;;;;;;;14.04;73.90;102886.41;5077345;28;20504;-85
2022/11/12 10:32:48;;;;;;;;;;;;;;;14.03;73.83;102876.72;5090737;28;19998;-86
2022/11/12 10:35:15;;;;;;;;;;;;;;;14.07;73.62;102879.56;5062440;28;19909;-85
2022/11/12 10:37:47;;;;;;;;;;;;;;;14.07;73.61;102880.47;5078522;28;19947;-86
2022/11/12 10:40:31;;;;;;;;;;;;;;;14.09;73.65;102877.97;5073388;28;19917;-84
2022/11/12 10:43:19;;;;;;;;;;;;;;;14.18;73.31;102879.56;5077600;28;20427;-86
2022/11/12 10:45:45;;;;;;;;;;;;;;;14.04;73.78;102875.91;5069488;28;19962;-85
2022/11/12 10:48:25;;;;;;;;;;;;;;;14.08;73.63;102876.16;5080906;28;20431;-87
2022/11/12 10:50:53;;;;;;;;;;;;;;;14.39;72.60;102882.84;5075339;28;19970;-86
2022/11/12 10:53:31;;;;;;;;;;;;;;;14.28;72.80;102883.75;5087352;28;19920;-85
2022/11/12 10:56:01;;;;;;;;;;;;;;;14.34;72.71;102880.66;5071035;28;19962;-86
2022/11/12 10:58:26;;;;;;;;;;;;;;;14.22;73.27;102881.63;5056467;28;19919;-86
2022/11/12 11:00:52;;;;;;;;;;;;;;;14.21;73.16;102878.88;5049954;28;19909;-84
2022/11/12 11:03:21;;;;;;;;;;;;;;;14.17;73.25;102879.44;5069818;28;19952;-86
2022/11/12 11:05:49;;;;;;;;;;;;;;;14.19;73.08;102881.38;5063147;28;20297;-85
2022/11/12 11:08:14;;;;;;;;;;;;;;;14.19;73.10;102880.47;5080284;28;19969;-83
2022/11/12 11:10:40;;;;;;;;;;;;;;;14.27;73.15;102879.31;5078146;28;19916;-85
2022/11/12 11:13:22;;;;;;;;;;;;;;;14.34;72.66;102885.94;5085107;28;19908;-85
2022/11/12 11:15:58;;;;;;;;;;;;;;;14.34;72.69;102881.56;5065410;28;19931;-86
2022/11/12 11:18:24;;;;;;;;;;;;;;;14.40;72.51;102884.66;5075657;28;19912;-85
2022/11/12 11:20:56;;;;;;;;;;;;;;;14.32;72.69;102882.28;5057256;28;19915;-85
2022/11/12 11:23:23;;;;;;;;;;;;;;;14.38;72.63;102880.09;5072226;28;19979;-87
2022/11/12 11:25:50;;;;;;;;;;;;;;;14.37;72.82;102886.13;5077794;28;19913;-86
2022/11/12 11:28:22;;;;;;;;;;;;;;;14.29;73.24;102889.91;5071531;28;19920;-85
2022/11/12 11:31:00;;;;;;;;;;;;;;;14.13;73.87;102890.53;5086064;28;19913;-87
2022/11/12 11:33:28;;;;;;;;;;;;;;;14.21;73.75;102894.63;5056161;28;19935;-85
2022/11/12 11:36:12;;;;;;;;;;;;;;;14.27;73.35;102897.72;5058782;28;19908;-84
2022/11/12 11:38:40;;;;;;;;;;;;;;;14.35;73.00;102895.63;5059066;28;19909;-84
2022/11/12 11:41:14;;;;;;;;;;;;;;;14.24;73.50;102898.41;5064501;28;19966;-85
2022/11/12 11:43:49;;;;;;;;;;;;;;;14.28;73.53;102896.91;5057355;28;19912;-85
2022/11/12 11:46:17;;;;;;;;;;;;;;;14.15;73.77;102894.19;5091785;28;20392;-84
2022/11/12 11:48:46;;;;;;;;;;;;;;;14.14;74.31;102894.97;5078834;28;20373;-84
2022/11/12 11:51:30;;;;;;;;;;;;;;;14.11;74.36;102892.13;5080109;28;19912;-85
2022/11/12 11:54:00;;;;;;;;;;;;;;;14.05;75.05;102892.56;5069992;28;20366;-85
2022/11/12 11:56:26;;;;;;;;;;;;;;;14.27;74.14;102895.09;5061559;28;20376;-85
2022/11/12 11:58:51;;;;;;;;;;;;;;;14.33;73.62;102892.91;5079329;28;19912;-85
2022/11/12 12:01:29;;;;;;;;;;;;;;;14.30;73.81;102897.00;5083809;28;20318;-85
2022/11/12 12:04:13;;;;;;;;;;;;;;;14.23;74.19;102895.66;5073507;28;20278;-85
2022/11/12 12:06:42;;;;;;;;;;;;;;;14.22;74.28;102897.38;5072648;28;19908;-85
2022/11/12 12:09:23;;;;;;;;;;;;;;;14.15;74.77;102892.47;5070508;28;20015;-85
2022/11/12 12:11:58;;;;;;;;;;;;;;;14.22;74.42;102900.00;5072860;28;20514;-84
2022/11/12 12:14:45;;;;;;;;;;;;;;;14.33;74.25;102899.84;5071345;28;19966;-85
2022/11/12 12:17:10;;;;;;;;;;;;;;;14.38;74.04;102901.13;5061159;28;19926;-86
2022/11/12 12:19:41;;;;;;;;;;;;;;;14.31;74.27;102904.09;5057828;28;19909;-84
2022/11/12 12:22:13;;;;;;;;;;;;;;;14.19;75.22;102899.75;5059127;28;20360;-85
2022/11/12 12:25:04;;;;;;;;;;;;;;;14.43;73.88;102908.56;5067639;28;19919;-83
2022/11/12 12:27:31;;;;;;;;;;;;;;;14.35;73.99;102911.41;5059295;28;19909;-87
2022/11/12 12:29:59;;;;;;;;;;;;;;;14.37;74.81;102910.72;5071586;28;19966;-86
2022/11/12 12:32:26;;;;;;;;;;;;;;;14.58;73.34;102913.09;5057219;28;20007;-84
2022/11/12 12:34:55;;;;;;;;;;;;;;;14.39;74.24;102910.81;5059110;28;20364;-84
2022/11/12 12:37:21;;;;;;;;;;;;;;;14.31;74.47;102918.16;5072738;28;20369;-84
2022/11/12 12:40:01;;;;;;;;;;;;;;;14.29;74.60;102914.50;5066731;28;20385;-85
2022/11/12 12:42:37;;;;;;;;;;;;;;;14.30;74.84;102907.53;5058711;28;19962;-84
2022/11/12 12:45:15;;;;;;;;;;;;;;;14.48;73.84;102908.88;5057298;28;19995;-83
2022/11/12 12:47:41;;;;;;;;;;;;;;;14.36;74.21;102907.97;5068188;28;20007;-84
2022/11/12 12:50:10;;;;;;;;;;;;;;;14.27;74.67;102912.56;5087001;28;20003;-86
2022/11/12 12:52:54;;;;;;;;;;;;;;;14.21;75.09;102916.56;5054734;28;19912;-84
2022/11/12 12:55:33;;;;;;;;;;;;;;;14.16;75.04;102922.28;5072916;28;19919;-85
2022/11/12 12:57:59;;;;;;;;;;;;;;;14.25;74.78;102925.59;5077536;28;20407;-86
2022/11/12 13:00:32;;;;;;;;;;;;;;;14.23;75.04;102929.81;5072249;28;19943;-85